createdAt,value
2019-05-10T00:01:32.802Z,57.60
2019-05-10T00:04:22.087Z,61.15
2019-05-10T00:07:11.651Z,71.37
2019-05-10T00:09:42.829Z,59.30
2019-05-10T00:12:16.100Z,49.35
2019-05-10T00:14:49.403Z,38.17
2019-05-10T00:17:22.906Z,31.00
2019-05-10T00:19:54.938Z,30.68
2019-05-10T00:22:27.521Z,32.70
2019-05-10T00:25:04.772Z,26.75
2019-05-10T00:27:32.923Z,22.27
2019-05-10T00:30:07.294Z,22.87
2019-05-10T00:32:38.862Z,24.65
2019-05-10T00:35:10.869Z,19.17
2019-05-10T00:37:42.469Z,19.57
2019-05-10T00:40:14.468Z,23.10
2019-05-10T00:42:46.134Z,21.57
2019-05-10T00:45:17.802Z,20.00
2019-05-10T00:47:49.872Z,16.30
2019-05-10T00:50:22.062Z,14.68
2019-05-10T00:52:53.650Z,15.95
2019-05-10T00:55:25.720Z,13.38
2019-05-10T00:57:57.460Z,12.80
2019-05-10T01:00:29.474Z,18.70
2019-05-10T01:03:01.067Z,10.68
2019-05-10T01:05:32.951Z,14.83
2019-05-10T01:08:04.835Z,10.43
2019-05-10T01:10:36.653Z,11.03
2019-05-10T01:13:08.450Z,11.25
2019-05-10T01:15:41.811Z,11.97
2019-05-10T01:18:13.665Z,12.88
2019-05-10T01:20:45.504Z,15.10
2019-05-10T01:23:17.285Z,17.00
2019-05-10T01:25:49.429Z,23.95
2019-05-10T01:28:21.336Z,32.13
2019-05-10T01:30:53.742Z,60.83
2019-05-10T01:33:25.556Z,80.57
2019-05-10T01:35:57.454Z,94.58
2019-05-10T01:38:29.065Z,94.22
2019-05-10T01:41:00.695Z,94.70
2019-05-10T01:43:33.520Z,78.07
2019-05-10T01:46:05.193Z,63.43
2019-05-10T01:48:37.011Z,56.83
2019-05-10T01:51:08.818Z,51.10
2019-05-10T01:53:40.432Z,45.98
2019-05-10T01:56:12.426Z,36.70
2019-05-10T01:58:44.054Z,43.30
2019-05-10T02:01:16.368Z,51.35
2019-05-10T02:03:47.978Z,56.92
2019-05-10T02:06:19.961Z,58.87
2019-05-10T02:08:51.587Z,70.37
2019-05-10T02:11:23.481Z,84.45
2019-05-10T02:13:55.209Z,101.47
2019-05-10T02:16:26.995Z,110.20
2019-05-10T02:18:59.129Z,106.52
2019-05-10T02:21:30.820Z,97.40
2019-05-10T02:24:02.684Z,117.57
2019-05-10T02:26:34.510Z,143.90
2019-05-10T02:29:06.403Z,136.57
2019-05-10T02:31:38.763Z,125.70
2019-05-10T02:34:10.456Z,126.65
2019-05-10T02:36:42.264Z,123.80
2019-05-10T02:39:14.163Z,106.25
2019-05-10T02:41:45.870Z,105.60
2019-05-10T02:44:17.707Z,82.90
2019-05-10T02:46:49.414Z,85.42
2019-05-10T02:49:21.579Z,83.50
2019-05-10T02:51:53.513Z,57.85
2019-05-10T02:54:25.692Z,57.53
2019-05-10T02:56:58.599Z,50.20
2019-05-10T02:59:31.292Z,55.35
2019-05-10T03:02:06.000Z,65.15
2019-05-10T03:04:38.056Z,64.00
2019-05-10T03:07:09.665Z,68.40
2019-05-10T03:09:41.845Z,64.77
2019-05-10T03:12:27.069Z,76.65
2019-05-10T03:15:00.151Z,66.77
2019-05-10T03:17:31.681Z,81.40
2019-05-10T03:20:04.830Z,99.80
2019-05-10T03:22:43.919Z,105.72
2019-05-10T03:25:15.611Z,103.25
2019-05-10T03:27:47.617Z,145.40
2019-05-10T03:30:19.685Z,78.40
2019-05-10T03:32:51.833Z,63.28
2019-05-10T03:35:24.120Z,53.33
2019-05-10T03:37:56.157Z,40.33
2019-05-10T03:40:27.876Z,38.17
2019-05-10T03:42:59.697Z,42.95
2019-05-10T03:45:31.635Z,36.03
2019-05-10T03:48:03.541Z,37.67
2019-05-10T03:50:35.509Z,24.55
2019-05-10T03:53:07.345Z,35.25
2019-05-10T03:55:39.428Z,31.50
2019-05-10T03:58:11.078Z,36.05
2019-05-10T04:00:43.197Z,43.55
2019-05-10T04:03:15.416Z,34.98
2019-05-10T04:05:47.619Z,37.95
2019-05-10T04:08:19.439Z,28.00
2019-05-10T04:10:52.521Z,33.48
2019-05-10T04:13:24.159Z,28.05
2019-05-10T04:15:56.076Z,24.67
2019-05-10T04:18:27.794Z,27.75
2019-05-10T04:20:59.996Z,39.70
2019-05-10T04:23:31.514Z,37.83
2019-05-10T04:26:03.578Z,33.20
2019-05-10T04:28:36.971Z,27.00
2019-05-10T04:31:09.205Z,31.80
2019-05-10T04:33:42.144Z,25.88
2019-05-10T04:36:13.840Z,28.95
2019-05-10T04:38:45.548Z,24.12
2019-05-10T04:41:17.262Z,21.27
2019-05-10T04:43:49.168Z,26.95
2019-05-10T04:46:21.131Z,20.85
2019-05-10T04:48:52.880Z,26.68
2019-05-10T04:51:24.792Z,29.52
2019-05-10T04:53:56.596Z,35.60
2019-05-10T04:56:28.546Z,45.38
2019-05-10T04:59:00.328Z,38.23
2019-05-10T05:01:32.496Z,40.20
2019-05-10T05:06:35.692Z,35.80
2019-05-10T05:09:08.087Z,35.92
2019-05-10T05:11:39.692Z,37.50
2019-05-10T05:14:11.716Z,39.35
2019-05-10T05:16:43.747Z,42.62
2019-05-10T05:19:15.649Z,37.58
2019-05-10T05:21:47.471Z,39.00
2019-05-10T05:24:22.906Z,47.65
2019-05-10T05:26:52.526Z,50.45
2019-05-10T05:29:24.488Z,50.48
2019-05-10T05:32:01.221Z,55.98
2019-05-10T05:34:30.265Z,56.75
2019-05-10T05:37:01.908Z,50.40
2019-05-10T05:39:33.801Z,53.83
2019-05-10T05:42:05.435Z,46.55
2019-05-10T05:44:37.342Z,60.08
2019-05-10T05:47:09.242Z,67.03
2019-05-10T05:49:41.955Z,60.65
2019-05-10T05:52:13.807Z,53.38
2019-05-10T05:54:45.642Z,56.88
2019-05-10T05:57:22.042Z,57.83
2019-05-10T05:59:50.810Z,53.58
2019-05-10T06:02:22.683Z,52.23
2019-05-10T06:04:54.344Z,45.95
2019-05-10T06:07:31.117Z,42.10
2019-05-10T06:09:59.567Z,39.75
2019-05-10T06:12:31.472Z,41.85
2019-05-10T06:15:03.531Z,40.63
2019-05-10T06:20:08.241Z,14.05
2019-05-10T06:22:44.003Z,15.58
2019-05-10T06:25:13.400Z,14.35
2019-05-10T06:27:45.337Z,12.95
2019-05-10T06:30:17.331Z,14.23
2019-05-10T06:32:53.302Z,11.70
2019-05-10T06:35:22.402Z,9.75
2019-05-10T06:37:53.924Z,8.45
2019-05-10T06:40:35.755Z,6.22
2019-05-10T06:42:59.128Z,8.25
2019-05-10T06:45:31.194Z,5.50
2019-05-10T06:48:02.945Z,5.97
2019-05-10T06:50:36.445Z,11.12
2019-05-10T06:53:10.938Z,5.85
2019-05-10T06:55:41.292Z,8.33
2019-05-10T06:58:13.005Z,6.85
2019-05-10T07:00:47.366Z,5.78
2019-05-10T07:03:18.234Z,9.75
2019-05-10T07:05:49.980Z,4.83
2019-05-10T07:08:21.387Z,6.78
2019-05-10T07:10:53.535Z,6.55
2019-05-10T07:13:25.240Z,8.25
2019-05-10T07:15:57.018Z,5.67
2019-05-10T07:21:00.810Z,8.48
2019-05-10T07:23:32.932Z,23.57
2019-05-10T07:26:05.244Z,22.15
2019-05-10T07:28:37.505Z,25.08
2019-05-10T07:33:40.319Z,35.83
2019-05-10T07:36:15.236Z,39.60
2019-05-10T07:38:46.666Z,40.38
2019-05-10T07:41:19.345Z,49.83
2019-05-10T07:43:51.752Z,57.33
2019-05-10T07:48:54.115Z,56.50
2019-05-10T07:51:28.887Z,54.77
2019-05-10T07:54:04.478Z,50.75
2019-05-10T07:56:33.153Z,44.53
2019-05-10T07:59:05.175Z,34.78
2019-05-10T08:01:37.000Z,36.42
2019-05-10T08:04:10.022Z,33.67
2019-05-10T08:06:47.626Z,33.75
2019-05-10T08:09:15.606Z,31.97
2019-05-10T08:11:48.457Z,41.30
2019-05-10T08:14:20.381Z,30.00
2019-05-10T08:16:58.443Z,28.07
2019-05-10T08:19:25.646Z,27.37
2019-05-10T08:22:01.696Z,28.90
2019-05-10T08:24:32.808Z,23.57
2019-05-10T08:27:11.469Z,26.60
2019-05-10T08:29:39.228Z,45.33
2019-05-10T08:32:12.858Z,47.05
2019-05-10T08:34:52.163Z,35.38
2019-05-10T08:37:30.385Z,25.48
2019-05-10T08:39:55.781Z,26.62
2019-05-10T08:42:37.627Z,30.00
2019-05-10T08:45:04.121Z,23.70
2019-05-10T08:47:32.303Z,27.58
2019-05-10T08:50:18.498Z,22.73
2019-05-10T08:52:37.843Z,31.80
2019-05-10T08:55:12.129Z,25.68
2019-05-10T08:57:48.021Z,27.13
2019-05-10T09:00:17.396Z,27.05
2019-05-10T09:02:48.975Z,31.27
2019-05-10T09:05:28.804Z,26.77
2019-05-10T09:07:54.842Z,25.23
2019-05-10T09:10:26.703Z,20.57
2019-05-10T09:12:58.443Z,26.20
2019-05-10T09:15:30.251Z,19.10
2019-05-10T09:18:04.306Z,17.67
2019-05-10T09:20:35.600Z,18.52
2019-05-10T09:23:08.532Z,11.25
2019-05-10T09:25:42.630Z,13.83
2019-05-10T09:28:16.742Z,22.10
2019-05-10T09:30:59.365Z,28.77
2019-05-10T09:33:22.384Z,22.75
2019-05-10T09:35:55.208Z,29.48
2019-05-10T09:38:28.677Z,18.48
2019-05-10T09:41:02.442Z,17.90
2019-05-10T09:43:33.520Z,13.25
2019-05-10T09:46:05.237Z,12.47
2019-05-10T09:48:37.009Z,13.98
2019-05-10T09:51:09.063Z,7.10
2019-05-10T09:53:40.623Z,9.98
2019-05-10T09:56:12.327Z,11.60
2019-05-10T09:58:44.025Z,15.50
2019-05-10T10:01:20.766Z,14.38
2019-05-10T10:03:49.495Z,17.45
2019-05-10T10:06:21.768Z,12.28
2019-05-10T10:11:27.637Z,13.58
2019-05-10T10:14:01.748Z,10.65
2019-05-10T10:16:31.688Z,12.10
2019-05-10T10:19:04.353Z,9.85
2019-05-10T10:21:38.939Z,10.90
2019-05-10T10:24:15.660Z,6.85
2019-05-10T10:26:43.023Z,9.53
2019-05-10T10:29:14.543Z,6.97
2019-05-10T10:31:55.314Z,7.85
2019-05-10T10:34:19.806Z,7.70
2019-05-10T10:36:51.761Z,5.15
2019-05-10T10:39:24.351Z,4.12
2019-05-10T10:41:57.091Z,6.28
2019-05-10T10:44:28.879Z,4.60
2019-05-10T10:47:00.534Z,4.65
2019-05-10T10:49:32.267Z,4.37
2019-05-10T10:52:05.675Z,7.35
2019-05-10T10:54:39.816Z,6.20
2019-05-10T10:57:10.564Z,3.83
2019-05-10T10:59:42.115Z,5.62
2019-05-10T11:02:31.575Z,3.85
2019-05-10T11:04:49.027Z,5.30
2019-05-10T11:07:21.145Z,4.37
2019-05-10T11:09:53.714Z,3.12
2019-05-10T11:12:26.196Z,3.47
2019-05-10T11:14:58.136Z,4.92
2019-05-10T11:20:02.394Z,5.30
2019-05-10T11:22:34.049Z,4.72
2019-05-10T11:25:09.760Z,3.85
2019-05-10T11:27:41.548Z,4.33
2019-05-10T11:30:14.242Z,3.45
2019-05-10T11:32:46.296Z,2.50
2019-05-10T11:37:51.774Z,3.00
2019-05-10T11:40:30.871Z,4.40
2019-05-10T11:42:56.923Z,4.12
2019-05-10T11:45:34.376Z,5.62
2019-05-10T11:48:02.322Z,14.00
2019-05-10T11:50:35.578Z,21.85
2019-05-10T11:53:15.512Z,26.48
2019-05-10T11:55:43.529Z,21.65
2019-05-10T11:58:14.123Z,25.43
2019-05-10T12:00:46.200Z,25.70
2019-05-10T12:05:53.179Z,21.60
2019-05-10T12:08:24.042Z,15.18
2019-05-10T12:13:32.506Z,18.45
2019-05-10T12:16:02.914Z,15.18
2019-05-10T12:18:36.317Z,11.25
2019-05-10T12:21:11.126Z,6.53
2019-05-10T12:23:50.270Z,6.72
2019-05-10T12:26:06.386Z,17.57
2019-05-10T12:27:12.617Z,5.62
2019-05-10T12:28:51.051Z,6.70
2019-05-10T12:31:23.305Z,11.00
2019-05-10T12:36:27.705Z,5.58
2019-05-10T12:39:01.649Z,7.90
2019-05-10T12:41:39.976Z,7.30
2019-05-10T12:44:08.000Z,7.47
2019-05-10T12:46:42.061Z,10.35
2019-05-10T12:49:12.931Z,12.75
2019-05-10T12:51:45.117Z,11.60
2019-05-10T12:54:18.492Z,7.28
2019-05-10T12:56:50.774Z,6.47
2019-05-10T12:59:22.557Z,10.05
2019-05-10T13:01:54.324Z,6.15
2019-05-10T13:04:39.692Z,7.70
2019-05-10T13:06:59.255Z,6.70
2019-05-10T13:09:40.113Z,5.47
2019-05-10T13:12:06.330Z,6.35
2019-05-10T13:14:40.339Z,6.10
2019-05-10T13:17:12.385Z,8.40
2019-05-10T13:19:44.380Z,9.60
2019-05-10T13:22:16.432Z,22.25
2019-05-10T13:24:48.400Z,17.27
2019-05-10T13:27:20.432Z,18.60
2019-05-10T13:29:53.536Z,25.27
2019-05-10T13:32:27.087Z,44.15
2019-05-10T13:34:58.703Z,19.17
2019-05-10T13:37:30.502Z,23.07
2019-05-10T13:40:05.265Z,23.90
2019-05-10T13:42:43.531Z,26.73
2019-05-10T13:45:09.450Z,27.60
2019-05-10T13:47:41.234Z,23.07
2019-05-10T13:50:13.665Z,20.15
2019-05-10T13:52:45.654Z,13.55
2019-05-10T13:55:17.353Z,13.05
2019-05-10T13:57:49.471Z,11.65
2019-05-10T14:00:21.380Z,10.10
2019-05-10T14:02:53.323Z,10.60
2019-05-10T14:05:25.047Z,9.60
2019-05-10T14:07:56.865Z,9.58
2019-05-10T14:10:29.074Z,7.65
2019-05-10T14:13:02.643Z,5.95
2019-05-10T14:15:34.619Z,6.92
2019-05-10T14:18:06.273Z,8.35
2019-05-10T14:20:38.266Z,4.72
2019-05-10T14:23:10.119Z,9.75
2019-05-10T14:25:41.954Z,7.30
2019-05-10T14:28:15.742Z,7.08
2019-05-10T14:30:57.257Z,8.30
2019-05-10T14:33:21.526Z,8.33
2019-05-10T14:35:55.289Z,5.85
2019-05-10T14:38:27.602Z,6.65
2019-05-10T14:41:03.861Z,7.47
2019-05-10T14:43:33.683Z,8.88
2019-05-10T14:46:13.115Z,8.93
2019-05-10T14:48:38.977Z,7.15
2019-05-10T14:51:13.628Z,11.55
2019-05-10T14:53:44.704Z,10.88
2019-05-10T14:56:16.703Z,5.20
2019-05-10T14:58:48.326Z,7.10
2019-05-10T15:01:20.046Z,6.13
2019-05-10T15:03:52.051Z,6.33
2019-05-10T15:06:23.797Z,6.13
2019-05-10T15:08:55.424Z,10.85
2019-05-10T15:11:31.713Z,5.25
2019-05-10T15:14:00.517Z,5.78
2019-05-10T15:16:32.453Z,5.08
2019-05-10T15:19:04.126Z,5.70
2019-05-10T15:21:36.452Z,8.05
2019-05-10T15:24:08.560Z,4.37
2019-05-10T15:26:43.894Z,5.08
2019-05-10T15:29:15.013Z,6.37
2019-05-10T15:31:47.315Z,4.78
2019-05-10T15:34:19.332Z,7.33
2019-05-10T15:36:51.145Z,6.80
2019-05-10T15:39:28.233Z,9.83
2019-05-10T15:41:59.247Z,5.75
2019-05-10T15:44:33.184Z,7.60
2019-05-10T15:47:03.406Z,6.90
2019-05-10T15:49:35.113Z,7.72
2019-05-10T15:52:17.438Z,7.20
2019-05-10T15:57:19.988Z,7.00
2019-05-10T15:59:23.826Z,8.73
2019-05-10T15:59:50.583Z,7.92
2019-05-10T16:02:21.312Z,6.58
2019-05-10T16:04:53.206Z,7.35
2019-05-10T16:07:24.954Z,8.65
2019-05-10T16:09:57.091Z,8.55
2019-05-10T16:12:28.782Z,8.28
2019-05-10T16:15:00.713Z,7.78
2019-05-10T16:17:33.705Z,9.38
2019-05-10T16:20:06.060Z,7.12
2019-05-10T16:22:37.637Z,7.87
2019-05-10T16:25:10.116Z,9.73
2019-05-10T16:27:45.095Z,10.80
2019-05-10T16:30:20.166Z,6.17
2019-05-10T16:32:50.846Z,8.23
2019-05-10T16:35:22.464Z,8.40
2019-05-10T16:37:54.426Z,8.43
2019-05-10T16:40:25.986Z,6.85
2019-05-10T16:42:58.170Z,7.95
2019-05-10T16:45:29.954Z,8.03
2019-05-10T16:48:05.708Z,10.85
2019-05-10T16:50:35.775Z,12.03
2019-05-10T16:53:08.215Z,8.18
2019-05-10T16:55:42.571Z,9.05
2019-05-10T16:58:15.119Z,7.90
2019-05-10T17:00:48.082Z,7.67
2019-05-10T17:03:20.664Z,8.03
2019-05-10T17:08:25.167Z,9.23
2019-05-10T17:10:56.897Z,8.50
2019-05-10T17:13:28.657Z,7.45
2019-05-10T17:16:00.437Z,12.20
2019-05-10T17:18:32.336Z,7.67
2019-05-10T17:21:04.087Z,7.90
2019-05-10T17:23:35.892Z,13.43
2019-05-10T17:26:08.194Z,10.13
2019-05-10T17:28:39.943Z,15.18
2019-05-10T17:31:11.994Z,15.83
2019-05-10T17:33:44.379Z,8.13
2019-05-10T17:36:19.859Z,8.43
2019-05-10T17:38:53.524Z,13.68
2019-05-10T17:41:24.727Z,8.85
2019-05-10T17:43:56.608Z,10.03
2019-05-10T17:46:28.165Z,8.33
2019-05-10T17:49:00.271Z,13.62
2019-05-10T17:51:32.189Z,10.58
2019-05-10T17:54:04.169Z,11.35
2019-05-10T17:56:39.068Z,10.85
2019-05-10T17:59:11.988Z,9.20
2019-05-10T18:01:42.753Z,20.85
2019-05-10T18:04:14.903Z,14.30
2019-05-10T18:06:46.841Z,16.20
2019-05-10T18:09:18.498Z,20.02
2019-05-10T18:11:50.410Z,17.60
2019-05-10T18:14:22.354Z,18.55
2019-05-10T18:16:54.002Z,12.35
2019-05-10T18:19:26.521Z,10.58
2019-05-10T18:22:00.889Z,10.43
2019-05-10T18:24:36.400Z,15.60
2019-05-10T18:27:05.584Z,13.72
2019-05-10T18:29:37.601Z,25.17
2019-05-10T18:32:11.101Z,29.27
2019-05-10T18:34:47.104Z,41.15
2019-05-10T18:37:21.804Z,22.25
2019-05-10T18:39:52.855Z,20.72
2019-05-10T18:42:27.715Z,23.02
2019-05-10T18:44:59.004Z,16.00
2019-05-10T18:47:31.352Z,16.00
2019-05-10T18:50:03.515Z,17.82
2019-05-10T18:52:35.449Z,21.00
2019-05-10T18:55:07.437Z,27.20
2019-05-10T18:57:39.319Z,18.98
2019-05-10T19:00:12.203Z,21.15
2019-05-10T19:02:44.045Z,14.98
2019-05-10T19:05:16.117Z,16.32
2019-05-10T19:08:01.470Z,26.23
2019-05-10T19:10:21.514Z,22.40
2019-05-10T19:13:00.670Z,22.77
2019-05-10T19:15:26.617Z,24.20
2019-05-10T19:17:58.416Z,25.23
2019-05-10T19:20:30.588Z,29.00
2019-05-10T19:23:05.429Z,27.10
2019-05-10T19:25:37.811Z,31.00
2019-05-10T19:28:09.578Z,32.80
2019-05-10T19:30:41.753Z,32.48
2019-05-10T19:33:13.783Z,30.32
2019-05-10T19:35:46.162Z,34.05
2019-05-10T19:38:17.969Z,37.42
2019-05-10T19:40:49.929Z,35.28
2019-05-10T19:43:23.820Z,34.63
2019-05-10T19:45:57.335Z,34.13
2019-05-10T19:48:34.796Z,37.48
2019-05-10T19:51:08.612Z,35.05
2019-05-10T19:53:42.071Z,33.18
2019-05-10T19:56:09.892Z,42.15
2019-05-10T19:58:41.870Z,31.97
2019-05-10T20:01:13.750Z,28.95
2019-05-10T20:03:45.493Z,39.25
2019-05-10T20:06:17.646Z,29.10
2019-05-10T20:08:49.788Z,28.80
2019-05-10T20:11:21.706Z,33.28
2019-05-10T20:13:53.541Z,26.05
2019-05-10T20:16:25.396Z,36.47
2019-05-10T20:18:57.048Z,24.23
2019-05-10T20:21:29.322Z,18.82
2019-05-10T20:24:01.022Z,15.80
2019-05-10T20:26:32.926Z,17.87
2019-05-10T20:29:04.505Z,15.93
2019-05-10T20:31:36.449Z,21.27
2019-05-10T20:34:08.521Z,17.45
2019-05-10T20:36:40.529Z,21.93
2019-05-10T20:39:12.558Z,24.57
2019-05-10T20:41:44.750Z,21.70
2019-05-10T20:44:18.121Z,19.73
2019-05-10T20:46:49.872Z,24.32
2019-05-10T20:49:21.593Z,26.73
2019-05-10T20:51:53.440Z,27.37
2019-05-10T20:54:25.040Z,26.15
2019-05-10T20:56:57.153Z,26.05
2019-05-10T20:59:29.780Z,26.57
2019-05-10T21:02:01.579Z,21.85
2019-05-10T21:04:33.435Z,18.77
2019-05-10T21:07:05.579Z,18.05
2019-05-10T21:09:38.464Z,18.75
2019-05-10T21:12:10.746Z,27.62
2019-05-10T21:14:42.394Z,28.57
2019-05-10T21:17:14.309Z,21.82
2019-05-10T21:19:45.895Z,20.82
2019-05-10T21:22:17.758Z,22.53
2019-05-10T21:24:49.443Z,18.75
2019-05-10T21:27:21.404Z,20.17
2019-05-10T21:29:52.929Z,18.67
2019-05-10T21:32:24.886Z,20.40
2019-05-10T21:34:57.002Z,21.55
2019-05-10T21:37:28.917Z,16.40
2019-05-10T21:40:00.780Z,18.30
2019-05-10T21:42:32.843Z,18.45
2019-05-10T21:45:05.105Z,19.60
2019-05-10T21:47:50.722Z,17.42
2019-05-10T21:50:10.593Z,17.45
2019-05-10T21:52:42.226Z,20.50
2019-05-10T21:55:14.522Z,20.92
2019-05-10T21:57:46.259Z,23.22
2019-05-10T22:00:20.052Z,22.07
2019-05-10T22:02:53.183Z,23.02
2019-05-10T22:05:25.315Z,28.98
2019-05-10T22:07:57.284Z,31.25
2019-05-10T22:10:29.391Z,28.42
2019-05-10T22:13:01.097Z,30.85
2019-05-10T22:15:32.917Z,31.42
2019-05-10T22:18:04.851Z,30.12
2019-05-10T22:20:36.792Z,32.65
2019-05-10T22:23:08.474Z,30.97
2019-05-10T22:25:40.324Z,28.17
2019-05-10T22:28:12.159Z,29.18
2019-05-10T22:30:44.471Z,31.70
2019-05-10T22:33:16.189Z,28.38
2019-05-10T22:35:48.293Z,35.63
2019-05-10T22:38:20.128Z,35.80
2019-05-10T22:40:52.015Z,36.45
2019-05-10T22:43:23.952Z,38.98
2019-05-10T22:45:55.792Z,39.08
2019-05-10T22:48:27.475Z,41.48
2019-05-10T22:50:59.347Z,43.70
2019-05-10T22:53:31.214Z,41.08
2019-05-10T22:56:02.834Z,38.88
2019-05-10T22:58:34.805Z,40.58
2019-05-10T23:01:06.853Z,33.90
2019-05-10T23:03:38.761Z,35.92
2019-05-10T23:06:10.369Z,30.37
2019-05-10T23:08:42.603Z,33.85
2019-05-10T23:11:14.396Z,29.72
2019-05-10T23:13:46.272Z,28.87
2019-05-10T23:16:17.868Z,34.33
2019-05-10T23:18:49.707Z,35.28
2019-05-10T23:21:21.326Z,32.80
2019-05-10T23:23:53.071Z,36.13
2019-05-10T23:26:24.843Z,30.32
2019-05-10T23:28:56.801Z,28.83
2019-05-10T23:31:28.414Z,28.70
2019-05-10T23:34:00.093Z,26.23
2019-05-10T23:36:31.689Z,25.17
2019-05-10T23:39:06.359Z,24.75
2019-05-10T23:41:37.957Z,27.73
2019-05-10T23:44:09.696Z,23.67
2019-05-10T23:46:41.481Z,27.30
2019-05-10T23:49:13.371Z,26.87
2019-05-10T23:51:45.092Z,23.87
2019-05-10T23:54:16.947Z,25.65
2019-05-10T23:56:49.015Z,21.77
2019-05-10T23:59:21.001Z,22.02
